createdAt,value
2019-05-12T00:01:33.629Z,92.70
2019-05-12T00:04:04.513Z,92.60
2019-05-12T00:06:35.594Z,92.50
2019-05-12T00:09:08.353Z,92.60
2019-05-12T00:11:39.635Z,92.50
2019-05-12T00:14:10.307Z,92.50
2019-05-12T00:16:41.583Z,92.50
2019-05-12T00:19:12.260Z,92.40
2019-05-12T00:21:43.180Z,92.40
2019-05-12T00:24:14.130Z,92.50
2019-05-12T00:26:45.104Z,92.30
2019-05-12T00:29:18.339Z,92.40
2019-05-12T00:31:48.028Z,92.30
2019-05-12T00:34:18.913Z,92.40
2019-05-12T00:36:49.795Z,92.30
2019-05-12T00:39:20.683Z,92.30
2019-05-12T00:41:51.696Z,92.10
2019-05-12T00:44:22.638Z,92.20
2019-05-12T00:46:53.657Z,92.30
2019-05-12T00:49:24.987Z,92.30
2019-05-12T00:51:55.834Z,92.10
2019-05-12T00:54:28.473Z,92.10
2019-05-12T00:56:58.766Z,91.90
2019-05-12T00:59:29.681Z,91.80
2019-05-12T01:02:00.366Z,91.80
2019-05-12T01:04:31.244Z,91.80
2019-05-12T01:07:02.127Z,91.70
2019-05-12T01:09:32.813Z,91.70
2019-05-12T01:12:03.923Z,91.60
2019-05-12T01:14:34.773Z,91.70
2019-05-12T01:17:05.744Z,91.40
2019-05-12T01:19:37.438Z,91.50
2019-05-12T01:22:09.058Z,91.60
2019-05-12T01:24:40.111Z,91.50
2019-05-12T01:27:11.106Z,91.40
2019-05-12T01:29:42.093Z,91.50
2019-05-12T01:32:14.272Z,90.90
2019-05-12T01:34:45.019Z,90.90
2019-05-12T01:37:18.381Z,90.70
2019-05-12T01:39:49.328Z,90.50
2019-05-12T01:42:21.016Z,90.60
2019-05-12T01:44:51.784Z,90.00
2019-05-12T01:47:22.464Z,89.40
2019-05-12T01:49:53.197Z,89.60
2019-05-12T01:52:24.216Z,90.00
2019-05-12T01:54:55.317Z,88.10
2019-05-12T01:57:26.252Z,86.70
2019-05-12T01:59:58.631Z,87.10
2019-05-12T02:02:29.823Z,86.20
2019-05-12T02:05:02.066Z,85.50
2019-05-12T02:07:34.185Z,84.20
2019-05-12T02:10:06.050Z,84.70
2019-05-12T02:12:38.302Z,82.10
2019-05-12T02:15:09.507Z,83.40
2019-05-12T02:17:40.460Z,80.10
2019-05-12T02:20:11.620Z,79.70
2019-05-12T02:22:42.612Z,76.00
2019-05-12T02:25:13.478Z,76.30
2019-05-12T02:27:44.483Z,77.80
2019-05-12T02:30:15.579Z,77.50
2019-05-12T02:32:52.491Z,79.40
2019-05-12T02:35:18.380Z,78.30
2019-05-12T02:37:49.250Z,77.30
2019-05-12T02:40:20.321Z,77.10
2019-05-12T02:42:54.541Z,75.70
2019-05-12T02:45:25.182Z,76.30
2019-05-12T02:47:55.764Z,74.80
2019-05-12T02:50:29.405Z,74.00
2019-05-12T02:53:00.389Z,75.20
2019-05-12T02:55:34.509Z,73.20
2019-05-12T02:58:05.055Z,74.10
2019-05-12T03:00:36.407Z,70.70
2019-05-12T03:03:09.773Z,72.90
2019-05-12T03:05:44.537Z,72.80
2019-05-12T03:08:16.099Z,73.20
2019-05-12T03:10:47.719Z,73.00
2019-05-12T03:13:18.802Z,71.70
2019-05-12T03:15:49.636Z,71.80
2019-05-12T03:18:20.764Z,70.10
2019-05-12T03:20:54.034Z,71.10
2019-05-12T03:23:24.858Z,70.00
2019-05-12T03:25:55.897Z,69.60
2019-05-12T03:28:26.596Z,70.90
2019-05-12T03:30:58.424Z,70.20
2019-05-12T03:33:35.970Z,71.50
2019-05-12T03:36:08.429Z,70.30
2019-05-12T03:38:36.346Z,68.00
2019-05-12T03:41:07.222Z,69.80
2019-05-12T03:43:38.218Z,70.10
2019-05-12T03:46:09.198Z,69.40
2019-05-12T03:48:40.098Z,67.50
2019-05-12T03:51:11.054Z,68.90
2019-05-12T03:53:45.140Z,68.50
2019-05-12T03:56:15.027Z,66.90
2019-05-12T03:58:46.274Z,66.50
2019-05-12T04:01:18.215Z,68.30
2019-05-12T04:03:49.011Z,68.50
2019-05-12T04:06:19.765Z,67.60
2019-05-12T04:08:50.467Z,68.20
2019-05-12T04:11:21.130Z,67.50
2019-05-12T04:13:54.814Z,68.00
2019-05-12T04:16:24.818Z,68.30
2019-05-12T04:18:56.044Z,68.20
2019-05-12T04:21:27.032Z,67.80
2019-05-12T04:23:57.917Z,67.50
2019-05-12T04:26:28.712Z,67.00
2019-05-12T04:28:59.559Z,67.10
2019-05-12T04:31:30.302Z,68.30
2019-05-12T04:34:01.231Z,67.90
2019-05-12T04:36:35.174Z,68.10
2019-05-12T04:39:05.096Z,68.40
2019-05-12T04:41:35.788Z,68.30
2019-05-12T04:44:06.764Z,68.60
2019-05-12T04:46:37.736Z,67.90
2019-05-12T04:49:08.580Z,68.30
2019-05-12T04:51:39.455Z,69.00
2019-05-12T04:54:10.440Z,68.80
2019-05-12T04:56:44.338Z,67.70
2019-05-12T04:59:15.625Z,66.40
2019-05-12T05:01:45.691Z,67.20
2019-05-12T05:04:16.692Z,67.30
2019-05-12T05:06:47.547Z,67.40
2019-05-12T05:09:18.534Z,67.60
2019-05-12T05:11:49.520Z,67.00
2019-05-12T05:14:20.510Z,64.80
2019-05-12T05:16:54.105Z,65.40
2019-05-12T05:19:24.381Z,66.20
2019-05-12T05:21:55.494Z,62.30
2019-05-12T05:24:26.219Z,61.40
2019-05-12T05:26:57.059Z,64.00
2019-05-12T05:29:27.957Z,60.60
2019-05-12T05:31:58.843Z,61.90
2019-05-12T05:34:29.822Z,62.10
2019-05-12T05:37:01.634Z,60.50
2019-05-12T05:39:35.781Z,60.00
2019-05-12T05:42:04.926Z,58.90
2019-05-12T05:44:37.970Z,60.40
2019-05-12T05:47:08.257Z,60.30
2019-05-12T05:49:38.944Z,59.10
2019-05-12T05:52:09.938Z,58.80
2019-05-12T05:54:40.795Z,59.70
2019-05-12T05:57:11.660Z,60.00
2019-05-12T05:59:42.670Z,59.40
2019-05-12T06:02:14.792Z,60.00
2019-05-12T06:04:49.822Z,59.40
2019-05-12T06:07:17.989Z,59.10
2019-05-12T06:09:48.875Z,57.80
2019-05-12T06:12:19.941Z,58.80
2019-05-12T06:14:57.885Z,55.20
2019-05-12T06:17:23.606Z,55.80
2019-05-12T06:19:54.585Z,57.00
2019-05-12T06:22:25.622Z,57.10
2019-05-12T06:24:58.907Z,57.60
2019-05-12T06:27:32.551Z,58.70
2019-05-12T06:30:06.034Z,58.70
2019-05-12T06:32:33.741Z,58.50
2019-05-12T06:35:05.314Z,59.00
2019-05-12T06:37:36.322Z,58.50
2019-05-12T06:40:08.342Z,58.10
2019-05-12T06:42:39.228Z,58.00
2019-05-12T06:45:09.914Z,54.60
2019-05-12T06:47:47.480Z,53.00
2019-05-12T06:50:14.615Z,53.60
2019-05-12T06:52:48.981Z,53.10
2019-05-12T06:55:16.883Z,52.70
2019-05-12T06:57:50.108Z,53.60
2019-05-12T07:00:22.337Z,52.70
2019-05-12T07:02:53.102Z,54.80
2019-05-12T07:05:28.138Z,53.90
2019-05-12T07:07:56.935Z,53.20
2019-05-12T07:10:46.738Z,54.70
2019-05-12T07:13:04.556Z,55.10
2019-05-12T07:15:35.756Z,51.90
2019-05-12T07:18:06.209Z,52.30
2019-05-12T07:20:38.925Z,52.40
2019-05-12T07:23:09.495Z,52.80
2019-05-12T07:25:40.387Z,54.30
2019-05-12T07:28:11.547Z,52.50
2019-05-12T07:30:44.385Z,52.10
2019-05-12T07:33:15.269Z,50.20
2019-05-12T07:35:46.047Z,51.30
2019-05-12T07:38:21.356Z,50.00
2019-05-12T07:40:49.655Z,50.30
2019-05-12T07:43:20.878Z,51.60
2019-05-12T07:45:56.598Z,51.60
2019-05-12T07:48:23.986Z,52.00
2019-05-12T07:50:58.438Z,50.10
2019-05-12T07:53:26.838Z,49.40
2019-05-12T07:56:00.136Z,48.10
2019-05-12T07:58:33.348Z,50.10
2019-05-12T08:01:07.722Z,50.50
2019-05-12T08:03:36.548Z,50.10
2019-05-12T08:06:07.417Z,50.40
2019-05-12T08:08:44.271Z,50.80
2019-05-12T08:11:10.548Z,50.00
2019-05-12T08:13:43.680Z,51.50
2019-05-12T08:16:14.182Z,52.10
2019-05-12T08:18:45.481Z,51.80
2019-05-12T08:21:17.157Z,50.40
2019-05-12T08:23:48.162Z,50.30
2019-05-12T08:26:20.639Z,51.60
2019-05-12T08:28:53.370Z,51.20
2019-05-12T08:31:31.971Z,51.50
2019-05-12T08:33:56.147Z,51.00
2019-05-12T08:36:27.003Z,50.90
2019-05-12T08:38:58.010Z,51.00
2019-05-12T08:41:29.071Z,50.50
2019-05-12T08:44:00.098Z,51.70
2019-05-12T08:46:31.109Z,51.80
2019-05-12T08:49:04.788Z,52.20
2019-05-12T08:51:34.791Z,51.70
2019-05-12T08:54:08.119Z,52.30
2019-05-12T08:56:38.072Z,52.50
2019-05-12T08:59:09.703Z,51.70
2019-05-12T09:01:43.707Z,51.00
2019-05-12T09:04:17.444Z,51.00
2019-05-12T09:06:53.377Z,51.10
2019-05-12T09:09:18.149Z,52.30
2019-05-12T09:11:49.112Z,52.30
2019-05-12T09:14:20.119Z,52.60
2019-05-12T09:16:53.761Z,52.80
2019-05-12T09:19:24.971Z,52.70
2019-05-12T09:21:55.666Z,52.40
2019-05-12T09:24:27.370Z,52.60
2019-05-12T09:26:58.978Z,51.10
2019-05-12T09:29:30.458Z,52.00
2019-05-12T09:32:05.418Z,52.60
2019-05-12T09:34:33.737Z,52.60
2019-05-12T09:37:04.780Z,53.30
2019-05-12T09:39:42.643Z,54.00
2019-05-12T09:42:07.954Z,53.70
2019-05-12T09:44:41.255Z,53.50
2019-05-12T09:47:22.003Z,54.50
2019-05-12T09:49:44.424Z,54.10
2019-05-12T09:52:22.279Z,53.40
2019-05-12T09:54:47.645Z,53.70
2019-05-12T09:57:18.628Z,53.90
2019-05-12T09:59:57.284Z,53.80
2019-05-12T10:02:23.802Z,53.60
2019-05-12T10:04:58.762Z,53.40
2019-05-12T10:07:26.438Z,53.50
2019-05-12T10:09:59.067Z,53.80
2019-05-12T10:12:29.982Z,54.50
2019-05-12T10:15:01.045Z,54.40
2019-05-12T10:17:33.861Z,53.80
2019-05-12T10:20:04.418Z,54.30
2019-05-12T10:22:40.086Z,55.10
2019-05-12T10:25:10.739Z,54.40
2019-05-12T10:27:44.081Z,54.50
2019-05-12T10:30:17.187Z,54.80
2019-05-12T10:32:47.457Z,54.80
2019-05-12T10:35:26.141Z,55.20
2019-05-12T10:37:50.855Z,54.70
2019-05-12T10:40:23.342Z,54.80
2019-05-12T10:42:53.649Z,55.20
2019-05-12T10:45:25.568Z,55.60
2019-05-12T10:47:56.580Z,55.60
2019-05-12T10:50:27.621Z,55.60
2019-05-12T10:52:58.469Z,56.20
2019-05-12T10:55:29.350Z,56.30
2019-05-12T10:58:03.235Z,56.50
2019-05-12T11:00:33.840Z,56.70
2019-05-12T11:03:12.287Z,56.80
2019-05-12T11:05:36.935Z,56.90
2019-05-12T11:08:10.978Z,57.20
2019-05-12T11:10:40.225Z,56.80
2019-05-12T11:13:11.251Z,56.90
2019-05-12T11:15:46.173Z,56.70
2019-05-12T11:18:15.085Z,56.90
2019-05-12T11:20:46.546Z,57.10
2019-05-12T11:23:18.050Z,57.10
2019-05-12T11:25:48.883Z,57.40
2019-05-12T11:28:20.716Z,57.70
2019-05-12T11:30:51.598Z,58.00
2019-05-12T11:33:23.801Z,58.30
2019-05-12T11:35:54.877Z,58.30
2019-05-12T11:38:25.665Z,59.20
2019-05-12T11:40:56.625Z,59.40
2019-05-12T11:43:29.777Z,59.30
2019-05-12T11:45:59.734Z,59.50
2019-05-12T11:48:30.511Z,59.80
2019-05-12T11:51:03.929Z,60.10
2019-05-12T11:53:35.432Z,60.00
2019-05-12T11:56:07.627Z,60.00
2019-05-12T11:58:41.204Z,60.20
2019-05-12T12:01:13.453Z,60.40
2019-05-12T12:03:44.171Z,60.40
2019-05-12T12:06:15.091Z,61.20
2019-05-12T12:08:46.394Z,61.20
2019-05-12T12:11:24.324Z,61.20
2019-05-12T12:13:50.746Z,61.10
2019-05-12T12:16:23.581Z,61.50
2019-05-12T12:19:02.391Z,61.80
2019-05-12T12:21:26.353Z,61.90
2019-05-12T12:23:57.253Z,62.50
2019-05-12T12:26:30.196Z,62.60
2019-05-12T12:29:00.617Z,61.80
2019-05-12T12:31:37.346Z,62.40
2019-05-12T12:34:05.090Z,62.10
2019-05-12T12:36:36.092Z,62.60
2019-05-12T12:39:08.339Z,62.80
2019-05-12T12:41:45.679Z,63.50
2019-05-12T12:44:13.499Z,62.40
2019-05-12T12:46:44.049Z,62.50
2019-05-12T12:49:14.917Z,63.30
2019-05-12T12:51:45.821Z,63.40
2019-05-12T12:54:17.126Z,63.40
2019-05-12T12:56:48.020Z,63.20
2019-05-12T12:59:19.020Z,63.00
2019-05-12T13:01:50.475Z,62.60
2019-05-12T13:04:21.474Z,63.30
2019-05-12T13:06:54.212Z,64.70
2019-05-12T13:09:24.829Z,63.60
2019-05-12T13:11:55.986Z,63.90
2019-05-12T13:14:28.514Z,64.20
2019-05-12T13:16:59.250Z,64.40
2019-05-12T13:19:30.134Z,64.40
2019-05-12T13:22:01.110Z,64.30
2019-05-12T13:24:33.581Z,65.30
2019-05-12T13:27:04.307Z,65.00
2019-05-12T13:29:39.744Z,65.40
2019-05-12T13:32:07.676Z,65.00
2019-05-12T13:34:38.718Z,65.00
2019-05-12T13:37:14.758Z,65.20
2019-05-12T13:39:54.680Z,65.60
2019-05-12T13:42:14.133Z,65.70
2019-05-12T13:44:45.031Z,66.10
2019-05-12T13:47:16.174Z,65.50
2019-05-12T13:49:47.607Z,65.40
2019-05-12T13:52:20.122Z,65.80
2019-05-12T13:54:50.952Z,66.20
2019-05-12T13:57:23.534Z,66.20
2019-05-12T14:00:05.629Z,66.80
2019-05-12T14:02:26.167Z,66.40
2019-05-12T14:05:00.440Z,67.00
2019-05-12T14:07:29.481Z,66.30
2019-05-12T14:10:00.372Z,67.00
2019-05-12T14:12:31.234Z,66.90
2019-05-12T14:15:02.120Z,67.00
2019-05-12T14:17:38.771Z,67.00
2019-05-12T14:20:09.404Z,67.30
2019-05-12T14:22:41.272Z,67.40
2019-05-12T14:25:11.011Z,67.60
2019-05-12T14:27:43.716Z,67.90
2019-05-12T14:30:14.695Z,68.70
2019-05-12T14:32:49.235Z,68.40
2019-05-12T14:35:18.183Z,68.70
2019-05-12T14:37:49.005Z,68.50
2019-05-12T14:40:26.019Z,69.00
2019-05-12T14:42:54.259Z,69.10
2019-05-12T14:45:29.620Z,69.00
2019-05-12T14:47:59.987Z,69.50
2019-05-12T14:50:29.187Z,69.90
2019-05-12T14:53:00.185Z,69.60
2019-05-12T14:55:33.553Z,69.50
2019-05-12T14:58:03.737Z,69.90
2019-05-12T15:00:34.790Z,70.00
2019-05-12T15:03:12.717Z,70.50
2019-05-12T15:05:41.379Z,70.00
2019-05-12T15:08:09.592Z,70.20
2019-05-12T15:10:40.471Z,70.40
2019-05-12T15:13:13.918Z,70.90
2019-05-12T15:15:44.051Z,70.30
2019-05-12T15:18:16.063Z,70.70
2019-05-12T15:20:49.995Z,71.00
2019-05-12T15:23:23.896Z,71.30
2019-05-12T15:25:53.718Z,71.40
2019-05-12T15:28:24.398Z,71.70
2019-05-12T15:30:55.431Z,72.20
2019-05-12T15:33:26.396Z,72.40
2019-05-12T15:35:57.269Z,72.30
2019-05-12T15:38:28.268Z,72.40
2019-05-12T15:40:59.120Z,71.90
2019-05-12T15:43:29.827Z,71.60
2019-05-12T15:46:00.497Z,71.70
2019-05-12T15:48:31.201Z,72.10
2019-05-12T15:51:05.245Z,72.80
2019-05-12T15:53:35.897Z,72.40
2019-05-12T15:56:14.767Z,72.70
2019-05-12T15:58:39.266Z,72.80
2019-05-12T16:01:10.147Z,72.30
2019-05-12T16:03:41.004Z,72.50
2019-05-12T16:06:14.627Z,72.70
2019-05-12T16:08:44.070Z,73.30
2019-05-12T16:11:14.818Z,73.40
2019-05-12T16:13:53.708Z,73.30
2019-05-12T16:16:17.816Z,73.00
2019-05-12T16:18:50.639Z,72.90
2019-05-12T16:21:21.203Z,72.90
2019-05-12T16:23:53.506Z,73.30
2019-05-12T16:26:24.347Z,73.50
2019-05-12T16:29:02.610Z,73.70
2019-05-12T16:31:27.496Z,73.80
2019-05-12T16:34:01.303Z,74.30
2019-05-12T16:36:33.570Z,74.70
2019-05-12T16:39:03.954Z,75.30
2019-05-12T16:41:35.993Z,74.80
2019-05-12T16:44:15.927Z,74.70
2019-05-12T16:46:39.341Z,74.50
2019-05-12T16:49:10.109Z,74.50
2019-05-12T16:51:41.191Z,74.30
2019-05-12T16:54:12.057Z,74.50
2019-05-12T16:56:43.340Z,75.40
2019-05-12T16:59:20.136Z,75.00
2019-05-12T17:01:47.287Z,75.00
2019-05-12T17:04:18.267Z,75.20
2019-05-12T17:06:49.132Z,75.10
2019-05-12T17:09:19.837Z,75.20
2019-05-12T17:11:52.823Z,75.60
2019-05-12T17:14:23.490Z,75.60
2019-05-12T17:16:57.146Z,75.50
2019-05-12T17:19:30.388Z,75.80
2019-05-12T17:22:01.262Z,76.30
2019-05-12T17:24:34.272Z,76.40
2019-05-12T17:27:09.238Z,76.60
2019-05-12T17:29:37.528Z,76.40
2019-05-12T17:32:08.831Z,76.80
2019-05-12T17:34:40.264Z,77.00
2019-05-12T17:37:14.372Z,77.00
2019-05-12T17:39:44.191Z,77.50
2019-05-12T17:42:21.474Z,77.40
2019-05-12T17:44:47.109Z,77.80
2019-05-12T17:47:21.407Z,78.00
2019-05-12T17:49:50.060Z,77.90
2019-05-12T17:52:20.705Z,77.90
2019-05-12T17:54:57.968Z,78.00
2019-05-12T17:57:24.135Z,77.00
2019-05-12T17:59:59.749Z,77.10
2019-05-12T18:02:27.392Z,76.80
2019-05-12T18:05:01.310Z,76.30
2019-05-12T18:07:30.485Z,76.30
2019-05-12T18:10:01.300Z,76.30
2019-05-12T18:12:36.710Z,76.10
2019-05-12T18:15:04.705Z,76.20
2019-05-12T18:17:39.126Z,75.80
2019-05-12T18:20:08.824Z,75.70
2019-05-12T18:22:45.052Z,76.20
2019-05-12T18:25:14.357Z,75.80
2019-05-12T18:27:50.602Z,76.00
2019-05-12T18:30:19.078Z,75.60
2019-05-12T18:32:57.694Z,75.00
2019-05-12T18:35:21.263Z,75.20
2019-05-12T18:37:54.177Z,74.80
2019-05-12T18:40:27.615Z,75.30
2019-05-12T18:42:56.837Z,75.60
2019-05-12T18:45:27.922Z,75.90
2019-05-12T18:48:01.120Z,76.30
2019-05-12T18:50:32.109Z,76.30
2019-05-12T18:53:03.457Z,77.00
2019-05-12T18:55:35.778Z,76.20
2019-05-12T18:58:06.467Z,76.60
2019-05-12T19:00:37.467Z,76.40
2019-05-12T19:03:09.966Z,76.20
2019-05-12T19:05:40.774Z,76.10
2019-05-12T19:08:13.821Z,76.10
2019-05-12T19:10:48.700Z,74.30
2019-05-12T19:13:16.056Z,75.90
2019-05-12T19:15:47.253Z,76.60
2019-05-12T19:18:18.449Z,77.60
2019-05-12T19:20:50.207Z,78.00
2019-05-12T19:23:20.986Z,78.10
2019-05-12T19:25:54.190Z,77.20
2019-05-12T19:28:24.161Z,78.40
2019-05-12T19:31:01.031Z,78.30
2019-05-12T19:33:27.332Z,78.50
2019-05-12T19:36:04.252Z,78.60
2019-05-12T19:38:30.693Z,78.90
2019-05-12T19:41:04.446Z,79.10
2019-05-12T19:43:39.142Z,79.30
2019-05-12T19:46:06.862Z,79.50
2019-05-12T19:48:44.319Z,79.60
2019-05-12T19:51:20.830Z,80.00
2019-05-12T19:53:43.751Z,79.70
2019-05-12T19:56:15.002Z,80.00
2019-05-12T19:58:46.053Z,79.70
2019-05-12T20:01:16.774Z,79.70
2019-05-12T20:03:50.112Z,79.60
2019-05-12T20:06:19.942Z,79.70
2019-05-12T20:08:55.740Z,80.00
2019-05-12T20:11:29.339Z,79.80
2019-05-12T20:13:55.666Z,79.90
2019-05-12T20:16:30.334Z,80.10
2019-05-12T20:18:58.965Z,80.10
2019-05-12T20:21:29.660Z,80.20
2019-05-12T20:24:00.507Z,80.10
2019-05-12T20:26:33.195Z,80.10
2019-05-12T20:29:04.523Z,79.80
2019-05-12T20:31:43.466Z,79.60
2019-05-12T20:34:10.977Z,79.70
2019-05-12T20:36:40.146Z,79.70
2019-05-12T20:39:16.811Z,79.40
2019-05-12T20:41:43.095Z,79.40
2019-05-12T20:44:17.340Z,79.90
2019-05-12T20:46:46.165Z,79.90
2019-05-12T20:49:20.185Z,80.20
2019-05-12T20:51:54.986Z,80.40
2019-05-12T20:54:23.779Z,80.50
2019-05-12T20:57:02.300Z,80.80
2019-05-12T20:59:28.155Z,80.80
2019-05-12T21:01:57.919Z,81.50
2019-05-12T21:04:37.065Z,81.50
2019-05-12T21:07:00.702Z,82.00
2019-05-12T21:09:31.688Z,82.30
2019-05-12T21:12:02.644Z,82.40
2019-05-12T21:14:33.574Z,83.30
2019-05-12T21:17:09.554Z,83.70
2019-05-12T21:19:38.744Z,83.90
2019-05-12T21:22:09.206Z,84.00
2019-05-12T21:24:40.131Z,84.70
2019-05-12T21:27:15.749Z,85.10
2019-05-12T21:29:43.758Z,84.80
2019-05-12T21:32:16.945Z,85.40
2019-05-12T21:34:46.946Z,85.70
2019-05-12T21:37:17.905Z,85.40
2019-05-12T21:39:50.924Z,86.10
2019-05-12T21:42:24.917Z,86.20
2019-05-12T21:44:53.614Z,86.30
2019-05-12T21:47:24.474Z,86.10
2019-05-12T21:49:57.792Z,86.60
2019-05-12T21:52:27.414Z,86.50
2019-05-12T21:54:58.520Z,86.30
2019-05-12T21:57:31.147Z,86.10
2019-05-12T22:00:04.600Z,86.10
2019-05-12T22:02:35.082Z,86.00
2019-05-12T22:05:07.146Z,87.10
2019-05-12T22:07:39.852Z,87.60
2019-05-12T22:10:10.289Z,87.50
2019-05-12T22:12:40.980Z,88.00
2019-05-12T22:15:19.229Z,88.70
2019-05-12T22:17:48.443Z,88.90
2019-05-12T22:20:19.903Z,89.30
2019-05-12T22:22:51.016Z,89.60
2019-05-12T22:25:23.657Z,90.00
2019-05-12T22:27:59.023Z,90.00
2019-05-12T22:30:27.034Z,90.20
2019-05-12T22:32:59.502Z,90.20
2019-05-12T22:35:30.445Z,90.20
2019-05-12T22:38:03.911Z,90.20
2019-05-12T22:40:33.468Z,90.30
2019-05-12T22:43:07.044Z,90.20
2019-05-12T22:45:44.591Z,90.30
2019-05-12T22:48:09.048Z,90.30
2019-05-12T22:50:40.131Z,90.40
2019-05-12T22:53:13.198Z,90.50
2019-05-12T22:55:43.029Z,90.50
2019-05-12T22:58:18.244Z,90.50
2019-05-12T23:00:51.063Z,90.60
2019-05-12T23:03:18.819Z,90.60
2019-05-12T23:05:50.906Z,90.70
2019-05-12T23:08:24.526Z,90.60
2019-05-12T23:10:56.200Z,90.60
2019-05-12T23:13:26.628Z,90.60
2019-05-12T23:15:57.386Z,90.70
2019-05-12T23:18:30.810Z,90.70
2019-05-12T23:21:06.440Z,90.80
2019-05-12T23:23:34.009Z,90.80
2019-05-12T23:26:04.973Z,91.10
2019-05-12T23:28:40.374Z,91.00
2019-05-12T23:31:07.978Z,91.00
2019-05-12T23:33:38.675Z,91.00
2019-05-12T23:36:14.534Z,90.90
2019-05-12T23:38:43.913Z,90.80
2019-05-12T23:41:13.967Z,90.80
2019-05-12T23:43:44.814Z,90.70
2019-05-12T23:46:15.574Z,90.70
2019-05-12T23:48:46.369Z,90.60
2019-05-12T23:51:17.129Z,90.50
2019-05-12T23:53:48.133Z,90.60
2019-05-12T23:56:19.110Z,90.70
2019-05-12T23:58:50.205Z,90.50
